sensor_id;sensor_type;location;lat;lon;timestamp;pressure;altitude;pressure_sealevel;temperature;humidity
62152;BME280;48139;47.474;19.034;2023-01-31T04:44:01;100305.75;;;3.63;100.00
62152;BME280;48139;47.474;19.034;2023-01-31T04:47:04;100305.75;;;3.63;100.00
62152;BME280;48139;47.474;19.034;2023-01-31T04:50:07;100324.69;;;3.19;100.00
62152;BME280;48139;47.474;19.034;2023-01-31T04:53:10;100305.72;;;3.20;100.00
62152;BME280;48139;47.474;19.034;2023-01-31T04:56:12;100323.03;;;3.18;100.00
62152;BME280;48139;47.474;19.034;2023-01-31T04:59:15;100327.25;;;3.22;100.00
62152;BME280;48139;47.474;19.034;2023-01-31T05:02:17;100340.09;;;3.27;100.00
62152;BME280;48139;47.474;19.034;2023-01-31T05:05:20;100350.34;;;3.33;100.00
62152;BME280;48139;47.474;19.034;2023-01-31T05:08:23;100356.25;;;3.41;100.00
62152;BME280;48139;47.474;19.034;2023-01-31T05:11:27;100367.50;;;3.40;100.00
62152;BME280;48139;47.474;19.034;2023-01-31T05:14:29;100363.28;;;3.33;100.00
62152;BME280;48139;47.474;19.034;2023-01-31T05:17:33;100365.22;;;3.22;100.00
62152;BME280;48139;47.474;19.034;2023-01-31T05:20:36;100351.56;;;3.12;100.00
62152;BME280;48139;47.474;19.034;2023-01-31T05:23:42;100337.09;;;3.02;100.00
62152;BME280;48139;47.474;19.034;2023-01-31T05:26:44;100344.00;;;3.02;100.00
62152;BME280;48139;47.474;19.034;2023-01-31T05:29:48;100354.66;;;2.82;100.00
62152;BME280;48139;47.474;19.034;2023-01-31T05:32:50;100360.72;;;2.81;100.00
62152;BME280;48139;47.474;19.034;2023-01-31T05:35:53;100363.34;;;2.78;100.00
62152;BME280;48139;47.474;19.034;2023-01-31T05:38:55;100336.63;;;2.79;100.00
62152;BME280;48139;47.474;19.034;2023-01-31T05:41:59;100343.34;;;2.89;100.00
62152;BME280;48139;47.474;19.034;2023-01-31T05:45:02;100357.00;;;2.97;100.00
62152;BME280;48139;47.474;19.034;2023-01-31T05:48:05;100356.91;;;3.03;100.00
62152;BME280;48139;47.474;19.034;2023-01-31T05:51:08;100356.06;;;3.01;100.00
62152;BME280;48139;47.474;19.034;2023-01-31T05:54:11;100370.72;;;3.02;100.00
62152;BME280;48139;47.474;19.034;2023-01-31T05:57:13;100359.53;;;3.00;100.00
62152;BME280;48139;47.474;19.034;2023-01-31T06:00:17;100365.50;;;3.05;100.00
62152;BME280;48139;47.474;19.034;2023-01-31T06:03:20;100375.00;;;3.05;100.00
62152;BME280;48139;47.474;19.034;2023-01-31T06:06:23;100368.97;;;3.04;100.00
62152;BME280;48139;47.474;19.034;2023-01-31T06:09:26;100365.47;;;3.07;100.00
62152;BME280;48139;47.474;19.034;2023-01-31T06:12:28;100371.44;;;3.12;100.00
62152;BME280;48139;47.474;19.034;2023-01-31T06:15:31;100384.34;;;3.13;100.00
62152;BME280;48139;47.474;19.034;2023-01-31T06:18:34;100372.31;;;3.11;100.00
62152;BME280;48139;47.474;19.034;2023-01-31T06:21:37;100382.56;;;3.17;100.00
62152;BME280;48139;47.474;19.034;2023-01-31T06:24:40;100389.34;;;3.24;100.00
62152;BME280;48139;47.474;19.034;2023-01-31T06:27:43;100388.44;;;3.27;100.00
62152;BME280;48139;47.474;19.034;2023-01-31T06:30:45;100389.47;;;3.18;100.00
62152;BME280;48139;47.474;19.034;2023-01-31T06:33:48;100384.06;;;3.30;100.00
62152;BME280;48139;47.474;19.034;2023-01-31T06:36:51;100391.91;;;3.25;100.00
62152;BME280;48139;47.474;19.034;2023-01-31T06:39:54;100393.50;;;3.33;100.00
62152;BME280;48139;47.474;19.034;2023-01-31T06:42:57;100394.38;;;3.32;100.00
62152;BME280;48139;47.474;19.034;2023-01-31T06:46:00;100398.66;;;3.34;100.00
62152;BME280;48139;47.474;19.034;2023-01-31T06:49:03;100390.91;;;3.33;100.00
62152;BME280;48139;47.474;19.034;2023-01-31T06:52:06;100409.75;;;3.42;100.00
62152;BME280;48139;47.474;19.034;2023-01-31T06:55:08;100404.47;;;3.47;100.00
62152;BME280;48139;47.474;19.034;2023-01-31T06:58:11;100407.00;;;3.50;100.00
62152;BME280;48139;47.474;19.034;2023-01-31T07:01:14;100406.00;;;3.57;100.00
62152;BME280;48139;47.474;19.034;2023-01-31T07:04:18;100413.72;;;3.61;100.00
62152;BME280;48139;47.474;19.034;2023-01-31T07:07:20;100428.41;;;3.61;100.00
62152;BME280;48139;47.474;19.034;2023-01-31T07:10:23;100410.13;;;3.69;100.00
62152;BME280;48139;47.474;19.034;2023-01-31T07:13:26;100418.81;;;3.66;100.00
62152;BME280;48139;47.474;19.034;2023-01-31T07:16:30;100425.62;;;3.72;100.00
62152;BME280;48139;47.474;19.034;2023-01-31T07:19:33;100403.78;;;3.85;96.91
62152;BME280;48139;47.474;19.034;2023-01-31T07:22:36;100408.91;;;3.88;96.55
62152;BME280;48139;47.474;19.034;2023-01-31T07:25:39;100420.94;;;3.92;98.08
62152;BME280;48139;47.474;19.034;2023-01-31T07:28:42;100421.81;;;3.91;98.06
62152;BME280;48139;47.474;19.034;2023-01-31T07:31:44;100442.53;;;3.92;98.52
62152;BME280;48139;47.474;19.034;2023-01-31T07:34:47;100433.69;;;4.02;98.16
62152;BME280;48139;47.474;19.034;2023-01-31T07:37:51;100456.16;;;4.02;97.27
62152;BME280;48139;47.474;19.034;2023-01-31T07:40:57;100450.09;;;4.03;97.14
62152;BME280;48139;47.474;19.034;2023-01-31T07:43:59;100460.34;;;4.07;96.54
62152;BME280;48139;47.474;19.034;2023-01-31T07:47:02;100466.31;;;4.13;94.26
62152;BME280;48139;47.474;19.034;2023-01-31T07:50:05;100454.16;;;4.15;94.95
62152;BME280;48139;47.474;19.034;2023-01-31T07:53:08;100466.22;;;4.17;95.85
62152;BME280;48139;47.474;19.034;2023-01-31T07:56:15;100451.47;;;4.21;93.61
62152;BME280;48139;47.474;19.034;2023-01-31T07:59:18;100480.69;;;4.29;88.95
62152;BME280;48139;47.474;19.034;2023-01-31T08:02:21;100484.87;;;4.36;89.85
62152;BME280;48139;47.474;19.034;2023-01-31T08:05:45;100509.88;;;4.38;87.74
62152;BME280;48139;47.474;19.034;2023-01-31T08:08:48;100503.94;;;4.33;90.81
62152;BME280;48139;47.474;19.034;2023-01-31T08:11:50;100489.13;;;4.38;91.28
62152;BME280;48139;47.474;19.034;2023-01-31T08:14:53;100507.25;;;4.40;91.04
62152;BME280;48139;47.474;19.034;2023-01-31T08:17:55;100515.88;;;4.42;92.04
62152;BME280;48139;47.474;19.034;2023-01-31T08:20:58;100523.56;;;4.46;92.38
62152;BME280;48139;47.474;19.034;2023-01-31T08:24:01;100535.56;;;4.51;92.76
62152;BME280;48139;47.474;19.034;2023-01-31T08:27:04;100539.78;;;4.56;91.81
62152;BME280;48139;47.474;19.034;2023-01-31T08:30:07;100545.81;;;4.58;92.81
62152;BME280;48139;47.474;19.034;2023-01-31T08:33:10;100556.09;;;4.63;93.62
62152;BME280;48139;47.474;19.034;2023-01-31T08:36:16;100566.34;;;4.69;92.60
62152;BME280;48139;47.474;19.034;2023-01-31T08:39:19;100560.38;;;4.65;91.47
62152;BME280;48139;47.474;19.034;2023-01-31T08:42:22;100575.06;;;4.66;92.20
62152;BME280;48139;47.474;19.034;2023-01-31T08:45:27;100577.62;;;4.68;91.76
62152;BME280;48139;47.474;19.034;2023-01-31T08:48:34;100598.06;;;4.84;91.47
62152;BME280;48139;47.474;19.034;2023-01-31T08:51:37;100580.97;;;6.58;81.48
62152;BME280;48139;47.474;19.034;2023-01-31T08:54:40;100592.34;;;9.68;59.29
62152;BME280;48139;47.474;19.034;2023-01-31T08:57:43;100589.72;;;9.23;57.53
62152;BME280;48139;47.474;19.034;2023-01-31T09:01:03;100594.06;;;10.11;53.40
62152;BME280;48139;47.474;19.034;2023-01-31T09:04:06;100592.03;;;7.55;62.51
62152;BME280;48139;47.474;19.034;2023-01-31T09:07:08;100622.69;;;7.18;67.37
62152;BME280;48139;47.474;19.034;2023-01-31T09:10:11;100623.13;;;7.03;67.59
62152;BME280;48139;47.474;19.034;2023-01-31T09:13:14;100620.66;;;6.33;72.85
62152;BME280;48139;47.474;19.034;2023-01-31T09:16:18;100627.13;;;5.43;78.02
62152;BME280;48139;47.474;19.034;2023-01-31T09:19:21;100617.19;;;5.20;81.97
62152;BME280;48139;47.474;19.034;2023-01-31T09:22:24;100624.28;;;5.14;84.32
62152;BME280;48139;47.474;19.034;2023-01-31T09:25:27;100619.69;;;5.25;85.55
62152;BME280;48139;47.474;19.034;2023-01-31T09:28:47;100619.56;;;5.31;84.39
62152;BME280;48139;47.474;19.034;2023-01-31T09:31:52;100618.81;;;5.26;83.00
62152;BME280;48139;47.474;19.034;2023-01-31T09:34:55;100616.41;;;5.18;84.74
62152;BME280;48139;47.474;19.034;2023-01-31T09:37:58;100625.97;;;5.16;82.78
62152;BME280;48139;47.474;19.034;2023-01-31T09:41:04;100625.25;;;5.08;83.42
62152;BME280;48139;47.474;19.034;2023-01-31T09:44:24;100622.59;;;5.11;84.22
62152;BME280;48139;47.474;19.034;2023-01-31T09:47:45;100631.84;;;5.24;85.91
62152;BME280;48139;47.474;19.034;2023-01-31T09:50:50;100627.19;;;5.39;85.69
62152;BME280;48139;47.474;19.034;2023-01-31T09:53:57;100648.44;;;5.57;86.25
62152;BME280;48139;47.474;19.034;2023-01-31T09:57:08;100650.75;;;5.69;82.04
62152;BME280;48139;47.474;19.034;2023-01-31T10:00:23;100632.53;;;5.71;80.62
62152;BME280;48139;47.474;19.034;2023-01-31T10:13:30;100647.00;;;5.83;81.46
62152;BME280;48139;47.474;19.034;2023-01-31T10:16:41;100649.50;;;5.87;80.41
62152;BME280;48139;47.474;19.034;2023-01-31T10:19:54;100655.06;;;5.72;80.65
62152;BME280;48139;47.474;19.034;2023-01-31T10:26:30;100651.44;;;5.79;80.50
62152;BME280;48139;47.474;19.034;2023-01-31T10:29:38;100655.53;;;5.89;77.79
62152;BME280;48139;47.474;19.034;2023-01-31T10:32:44;100645.44;;;6.13;71.92
62152;BME280;48139;47.474;19.034;2023-01-31T10:35:51;100643.47;;;6.24;71.87
62152;BME280;48139;47.474;19.034;2023-01-31T10:39:09;100638.19;;;6.25;70.45
62152;BME280;48139;47.474;19.034;2023-01-31T10:42:37;100623.94;;;6.41;68.78
62152;BME280;48139;47.474;19.034;2023-01-31T10:45:40;100640.44;;;6.40;66.93
62152;BME280;48139;47.474;19.034;2023-01-31T10:48:44;100636.09;;;6.41;66.55
62152;BME280;48139;47.474;19.034;2023-01-31T10:52:34;100638.75;;;6.38;66.58
62152;BME280;48139;47.474;19.034;2023-01-31T10:55:57;100637.22;;;6.31;67.06
62152;BME280;48139;47.474;19.034;2023-01-31T10:59:35;100620.16;;;6.53;66.00
62152;BME280;48139;47.474;19.034;2023-01-31T11:02:39;100628.81;;;6.54;64.47
62152;BME280;48139;47.474;19.034;2023-01-31T11:05:56;100620.88;;;6.58;64.43
62152;BME280;48139;47.474;19.034;2023-01-31T11:09:00;100607.66;;;6.33;64.67
62152;BME280;48139;47.474;19.034;2023-01-31T11:12:06;100632.69;;;6.37;67.90
62152;BME280;48139;47.474;19.034;2023-01-31T11:15:16;100608.50;;;6.34;65.62
62152;BME280;48139;47.474;19.034;2023-01-31T11:18:48;100611.09;;;6.34;65.07
62152;BME280;48139;47.474;19.034;2023-01-31T11:21:53;100609.66;;;6.24;63.43
62152;BME280;48139;47.474;19.034;2023-01-31T11:24:56;100599.31;;;6.21;64.35
62152;BME280;48139;47.474;19.034;2023-01-31T11:28:00;100593.81;;;6.31;63.34
62152;BME280;48139;47.474;19.034;2023-01-31T11:31:06;100604.28;;;6.30;63.00
62152;BME280;48139;47.474;19.034;2023-01-31T11:34:23;100605.72;;;6.41;62.58
62152;BME280;48139;47.474;19.034;2023-01-31T11:37:26;100597.09;;;6.39;62.21
62152;BME280;48139;47.474;19.034;2023-01-31T11:40:34;100592.31;;;6.23;61.44
62152;BME280;48139;47.474;19.034;2023-01-31T11:43:37;100588.28;;;6.11;61.92
62152;BME280;48139;47.474;19.034;2023-01-31T11:46:57;100598.00;;;6.04;63.58
62152;BME280;48139;47.474;19.034;2023-01-31T11:50:01;100581.28;;;6.13;66.11
62152;BME280;48139;47.474;19.034;2023-01-31T11:53:29;100584.16;;;6.36;64.16
62152;BME280;48139;47.474;19.034;2023-01-31T11:56:36;100583.03;;;6.46;62.80
62152;BME280;48139;47.474;19.034;2023-01-31T11:59:39;100583.25;;;6.70;62.10
62152;BME280;48139;47.474;19.034;2023-01-31T12:02:43;100593.56;;;7.04;60.13
62152;BME280;48139;47.474;19.034;2023-01-31T12:05:48;100574.31;;;7.09;57.09
62152;BME280;48139;47.474;19.034;2023-01-31T12:08:53;100594.50;;;7.01;58.08
62152;BME280;48139;47.474;19.034;2023-01-31T12:11:59;100586.59;;;7.06;57.91
62152;BME280;48139;47.474;19.034;2023-01-31T12:15:14;100580.69;;;6.99;58.18
62152;BME280;48139;47.474;19.034;2023-01-31T12:18:30;100586.28;;;6.85;60.37
62152;BME280;48139;47.474;19.034;2023-01-31T12:22:05;100576.72;;;6.86;60.15
62152;BME280;48139;47.474;19.034;2023-01-31T12:29:45;100570.56;;;6.58;59.39
62152;BME280;48139;47.474;19.034;2023-01-31T12:33:08;100574.12;;;6.55;59.09
62152;BME280;48139;47.474;19.034;2023-01-31T12:43:36;100590.13;;;6.40;61.46
62152;BME280;48139;47.474;19.034;2023-01-31T12:57:47;100591.59;;;6.50;63.13
62152;BME280;48139;47.474;19.034;2023-01-31T13:07:39;100607.88;;;6.57;65.93
62152;BME280;48139;47.474;19.034;2023-01-31T13:14:02;100632.53;;;6.43;68.14
62152;BME280;48139;47.474;19.034;2023-01-31T13:17:11;100626.56;;;6.40;67.16
62152;BME280;48139;47.474;19.034;2023-01-31T13:20:28;100644.06;;;6.33;67.81
62152;BME280;48139;47.474;19.034;2023-01-31T13:23:43;100642.28;;;6.35;66.95
62152;BME280;48139;47.474;19.034;2023-01-31T13:26:55;100645.81;;;6.33;70.31
62152;BME280;48139;47.474;19.034;2023-01-31T13:30:03;100651.41;;;6.52;69.98
62152;BME280;48139;47.474;19.034;2023-01-31T13:33:26;100644.81;;;6.38;72.22
62152;BME280;48139;47.474;19.034;2023-01-31T13:36:52;100656.19;;;6.34;72.37
62152;BME280;48139;47.474;19.034;2023-01-31T13:40:25;100666.06;;;6.20;69.99
62152;BME280;48139;47.474;19.034;2023-01-31T13:43:25;100671.22;;;6.23;70.71
62152;BME280;48139;47.474;19.034;2023-01-31T13:46:37;100675.59;;;6.21;72.51
62152;BME280;48139;47.474;19.034;2023-01-31T13:49:49;100666.94;;;6.21;72.82
62152;BME280;48139;47.474;19.034;2023-01-31T13:52:54;100662.59;;;6.21;76.17
62152;BME280;48139;47.474;19.034;2023-01-31T13:56:02;100667.06;;;6.16;74.29
62152;BME280;48139;47.474;19.034;2023-01-31T13:59:20;100678.34;;;6.15;74.01
62152;BME280;48139;47.474;19.034;2023-01-31T14:02:27;100680.19;;;6.10;72.69
62152;BME280;48139;47.474;19.034;2023-01-31T14:11:51;100677.25;;;5.87;72.29
62152;BME280;48139;47.474;19.034;2023-01-31T14:14:56;100677.34;;;5.82;75.75
62152;BME280;48139;47.474;19.034;2023-01-31T14:18:00;100678.75;;;5.98;74.94
62152;BME280;48139;47.474;19.034;2023-01-31T14:30:54;100694.53;;;5.89;75.15
62152;BME280;48139;47.474;19.034;2023-01-31T14:33:58;100690.56;;;5.73;76.21
62152;BME280;48139;47.474;19.034;2023-01-31T14:37:10;100686.62;;;5.55;78.53
62152;BME280;48139;47.474;19.034;2023-01-31T14:44:15;100699.88;;;5.43;80.07
62152;BME280;48139;47.474;19.034;2023-01-31T14:50:46;100698.47;;;5.25;85.81
62152;BME280;48139;47.474;19.034;2023-01-31T14:57:46;100699.41;;;5.21;87.21
62152;BME280;48139;47.474;19.034;2023-01-31T15:00:53;100695.09;;;5.20;89.37
62152;BME280;48139;47.474;19.034;2023-01-31T15:03:57;100694.13;;;5.26;89.56
62152;BME280;48139;47.474;19.034;2023-01-31T15:07:00;100683.81;;;5.23;89.13
62152;BME280;48139;47.474;19.034;2023-01-31T15:10:03;100689.91;;;5.20;89.02
62152;BME280;48139;47.474;19.034;2023-01-31T15:16:56;100684.09;;;5.09;90.99
62152;BME280;48139;47.474;19.034;2023-01-31T15:20:17;100692.84;;;5.04;91.84
62152;BME280;48139;47.474;19.034;2023-01-31T15:23:29;100701.47;;;5.06;92.77
62152;BME280;48139;47.474;19.034;2023-01-31T15:26:33;100705.09;;;4.97;99.02
62152;BME280;48139;47.474;19.034;2023-01-31T15:36:03;100712.56;;;4.68;100.00
62152;BME280;48139;47.474;19.034;2023-01-31T15:39:28;100708.16;;;4.70;100.00
62152;BME280;48139;47.474;19.034;2023-01-31T15:42:33;100711.63;;;4.70;100.00
62152;BME280;48139;47.474;19.034;2023-01-31T15:45:36;100702.13;;;4.69;100.00
62152;BME280;48139;47.474;19.034;2023-01-31T15:48:41;100693.47;;;4.69;100.00
62152;BME280;48139;47.474;19.034;2023-01-31T15:51:44;100693.75;;;4.55;100.00
62152;BME280;48139;47.474;19.034;2023-01-31T15:54:58;100694.53;;;4.59;100.00
62152;BME280;48139;47.474;19.034;2023-01-31T15:58:02;100686.75;;;4.60;100.00
62152;BME280;48139;47.474;19.034;2023-01-31T16:01:05;100692.16;;;4.46;100.00
62152;BME280;48139;47.474;19.034;2023-01-31T16:04:11;100687.00;;;4.43;100.00
62152;BME280;48139;47.474;19.034;2023-01-31T16:07:16;100692.13;;;4.48;100.00
62152;BME280;48139;47.474;19.034;2023-01-31T16:10:19;100693.78;;;4.52;100.00
62152;BME280;48139;47.474;19.034;2023-01-31T16:13:22;100686.97;;;4.45;100.00
62152;BME280;48139;47.474;19.034;2023-01-31T16:16:26;100690.53;;;4.41;100.00
62152;BME280;48139;47.474;19.034;2023-01-31T16:19:31;100695.81;;;4.35;100.00
62152;BME280;48139;47.474;19.034;2023-01-31T16:22:35;100690.34;;;4.50;100.00
62152;BME280;48139;47.474;19.034;2023-01-31T16:25:38;100682.50;;;4.55;100.00
62152;BME280;48139;47.474;19.034;2023-01-31T16:28:49;100693.69;;;4.57;100.00
62152;BME280;48139;47.474;19.034;2023-01-31T16:31:55;100692.94;;;4.52;100.00
62152;BME280;48139;47.474;19.034;2023-01-31T16:35:00;100690.34;;;4.52;100.00
62152;BME280;48139;47.474;19.034;2023-01-31T16:38:06;100693.91;;;4.44;100.00
62152;BME280;48139;47.474;19.034;2023-01-31T16:44:41;100688.72;;;4.44;100.00
62152;BME280;48139;47.474;19.034;2023-01-31T16:47:47;100692.81;;;4.58;100.00
